Time;durP1;ratioP1;P1;durP2;ratioP2;P2;SDS_P1;SDS_P2;PMS_P1;PMS_P2;Temp;Humidity;BMP_temperature;BMP_pressure;BME280_temperature;BME280_humidity;BME280_pressure;Samples;Min_cycle;Max_cycle;Signal;HPM_P1;HPM_P2
2022/03/17 00:00:46;;;;;;;8.40;4.57;;;;;;;4.28;63.97;101999.44;5045319;28;20339;-63
2022/03/17 00:03:11;;;;;;;5.95;2.90;;;;;;;4.47;63.39;102004.53;5045360;28;20021;-64
2022/03/17 00:05:37;;;;;;;8.55;4.35;;;;;;;4.13;64.28;102000.50;5045192;28;20048;-64
2022/03/17 00:08:03;;;;;;;10.45;4.88;;;;;;;4.13;64.37;102008.22;5045152;28;20025;-64
2022/03/17 00:10:29;;;;;;;10.07;4.95;;;;;;;4.08;64.60;102007.13;5045139;28;20109;-64
2022/03/17 00:12:54;;;;;;;11.23;6.88;;;;;;;4.15;64.31;102014.31;5027248;28;20081;-64
2022/03/17 00:15:19;;;;;;;9.95;4.13;;;;;;;4.12;64.52;101997.88;5045211;28;20032;-64
2022/03/17 00:17:46;;;;;;;7.82;4.32;;;;;;;4.27;63.94;101998.53;5044960;28;20033;-64
2022/03/17 00:20:12;;;;;;;7.72;4.40;;;;;;;4.28;63.92;102000.28;5044655;28;20049;-64
2022/03/17 00:22:38;;;;;;;12.68;6.00;;;;;;;4.43;63.15;101991.47;5044640;28;20145;-64
2022/03/17 00:25:05;;;;;;;8.55;4.97;;;;;;;4.28;63.84;101997.72;5044902;28;20485;-65
2022/03/17 00:27:32;;;;;;;4.68;2.60;;;;;;;4.47;63.35;101991.66;5044751;28;20096;-64
2022/03/17 00:29:57;;;;;;;6.90;3.33;;;;;;;4.49;63.17;102001.16;5044691;28;20052;-64
2022/03/17 00:32:26;;;;;;;9.80;5.10;;;;;;;4.36;63.15;101994.59;5044995;28;20029;-65
2022/03/17 00:37:36;;;;;;;12.60;7.07;;;;;;;3.95;64.29;101998.88;5044457;28;20151;-64
2022/03/17 00:40:02;;;;;;;6.55;3.85;;;;;;;4.15;64.08;101998.88;5044624;28;20493;-64
2022/03/17 00:42:28;;;;;;;11.80;4.35;;;;;;;4.24;63.91;101997.50;5044607;28;20089;-65
2022/03/17 00:44:54;;;;;;;5.28;4.03;;;;;;;4.24;63.84;101992.38;5044376;28;20017;-64
2022/03/17 00:47:20;;;;;;;5.70;3.72;;;;;;;3.96;64.33;101990.34;5044297;28;20052;-64
2022/03/17 00:49:46;;;;;;;13.68;7.50;;;;;;;3.87;64.75;102007.91;5044208;28;20427;-64
2022/03/17 00:52:12;;;;;;;13.38;6.88;;;;;;;3.84;64.69;101995.81;5026353;28;20094;-64
2022/03/17 00:54:39;;;;;;;12.60;5.03;;;;;;;3.81;65.17;101993.13;5044054;28;20235;-64
2022/03/17 00:57:05;;;;;;;13.27;7.05;;;;;;;3.81;65.22;101990.56;5044202;28;20025;-64
2022/03/17 00:59:31;;;;;;;11.98;6.93;;;;;;;3.74;65.54;101995.34;5044142;28;20063;-64
2022/03/17 01:01:56;;;;;;;20.38;9.48;;;;;;;3.83;64.96;101988.91;5026401;28;20025;-64
2022/03/17 01:04:22;;;;;;;23.95;7.68;;;;;;;3.86;65.01;101983.06;5043220;28;20022;-64
2022/03/17 01:06:47;;;;;;;15.45;5.90;;;;;;;3.99;64.71;101975.88;5044030;28;20021;-65
2022/03/17 01:09:12;;;;;;;16.48;8.90;;;;;;;3.88;64.88;101983.13;5043959;28;20438;-64
2022/03/17 01:11:37;;;;;;;15.27;7.75;;;;;;;3.86;65.03;101971.88;5043824;28;20024;-64
2022/03/17 01:14:03;;;;;;;17.88;8.43;;;;;;;3.81;65.05;101976.81;5043906;28;20422;-64
2022/03/17 01:16:28;;;;;;;15.73;9.50;;;;;;;3.67;65.55;101976.19;5043738;28;20033;-64
2022/03/17 01:18:53;;;;;;;14.13;6.93;;;;;;;3.83;64.92;101967.50;5043896;28;20021;-64
2022/03/17 01:21:19;;;;;;;17.67;8.00;;;;;;;3.73;65.26;101963.63;5043670;28;20077;-65
2022/03/17 01:23:44;;;;;;;22.10;10.93;;;;;;;3.85;64.69;101971.00;5043726;28;20053;-65
2022/03/17 01:26:11;;;;;;;12.10;4.25;;;;;;;3.97;64.62;101973.25;5043661;28;20116;-64
2022/03/17 01:28:36;;;;;;;13.35;6.28;;;;;;;3.79;64.94;101961.34;5043566;28;20106;-65
2022/03/17 01:31:01;;;;;;;13.77;8.30;;;;;;;3.59;65.62;101960.44;5043683;28;20048;-64
2022/03/17 01:33:27;;;;;;;18.10;8.43;;;;;;;3.73;65.34;101963.63;5043686;28;20021;-64
2022/03/17 01:35:52;;;;;;;16.15;7.72;;;;;;;3.69;65.50;101962.59;5043561;28;20060;-65
2022/03/17 01:38:19;;;;;;;12.45;7.00;;;;;;;3.66;65.44;101964.19;5025450;28;20072;-65
2022/03/17 01:40:44;;;;;;;12.43;5.32;;;;;;;3.59;65.79;101958.72;5043388;28;20090;-65
2022/03/17 01:43:10;;;;;;;20.02;11.95;;;;;;;3.37;66.48;101950.88;5043562;28;20025;-65
2022/03/17 01:45:36;;;;;;;22.98;11.27;;;;;;;3.30;66.62;101947.13;5043380;28;20101;-65
2022/03/17 01:48:02;;;;;;;10.63;5.15;;;;;;;3.42;66.33;101940.00;5043471;28;20393;-65
2022/03/17 01:50:27;;;;;;;25.48;14.27;;;;;;;3.34;66.52;101946.44;5042970;28;20021;-64
2022/03/17 01:52:53;;;;;;;14.65;8.07;;;;;;;3.56;65.87;101950.03;5043276;28;20036;-64
2022/03/17 01:55:18;;;;;;;22.17;10.93;;;;;;;3.38;66.40;101940.66;5043375;28;20025;-65
2022/03/17 01:57:44;;;;;;;25.52;11.20;;;;;;;3.47;65.98;101935.97;5043123;28;20025;-65
2022/03/17 02:00:13;;;;;;;14.70;6.82;;;;;;;3.57;65.81;101931.22;5043219;28;20044;-64
2022/03/17 02:02:39;;;;;;;28.77;14.35;;;;;;;3.45;65.74;101929.00;5043507;28;20030;-65
2022/03/17 02:05:05;;;;;;;19.58;9.48;;;;;;;3.51;65.40;101919.00;5025515;28;20045;-65
2022/03/17 02:07:30;;;;;;;17.73;8.35;;;;;;;3.31;66.08;101920.63;5043132;28;20124;-65
2022/03/17 02:09:55;;;;;;;17.13;7.10;;;;;;;3.65;65.32;101913.59;5043180;28;20066;-65
2022/03/17 02:15:08;;;;;;;22.50;12.30;;;;;;;3.26;66.17;101914.44;5043117;28;20032;-65
2022/03/17 02:17:39;;;;;;;21.95;10.10;;;;;;;3.09;66.89;101904.25;5047203;28;20021;-63
2022/03/17 02:20:07;;;;;;;20.98;7.00;;;;;;;3.29;66.19;101894.91;5047079;28;20082;-63
2022/03/17 02:22:33;;;;;;;16.67;10.05;;;;;;;3.26;66.03;101902.47;5046897;28;20073;-63
2022/03/17 02:27:47;;;;;;;26.67;13.77;;;;;;;3.05;66.69;101884.41;5047136;28;20154;-64
2022/03/17 02:30:15;;;;;;;22.60;12.05;;;;;;;3.11;66.46;101884.69;5046895;28;20038;-63
2022/03/17 02:32:41;;;;;;;32.15;17.20;;;;;;;3.11;66.34;101877.00;5047058;28;20033;-63
2022/03/17 02:35:09;;;;;;;18.33;10.70;;;;;;;3.05;66.81;101874.13;5046906;28;20056;-64
2022/03/17 02:37:34;;;;;;;22.38;11.48;;;;;;;2.97;67.00;101876.34;5046374;28;20069;-63
2022/03/17 02:40:04;;;;;;;22.13;10.15;;;;;;;2.76;67.77;101871.97;5028938;28;20032;-63
2022/03/17 02:42:30;;;;;;;13.82;7.68;;;;;;;2.84;67.53;101865.47;5046844;28;20052;-64
2022/03/17 02:44:58;;;;;;;25.95;13.43;;;;;;;2.81;67.71;101872.19;5046629;28;20355;-64
2022/03/17 02:47:23;;;;;;;25.02;10.32;;;;;;;2.89;67.44;101873.41;5046624;28;20025;-64
2022/03/17 02:49:49;;;;;;;19.23;11.15;;;;;;;2.80;67.84;101889.25;5046701;28;20062;-63
2022/03/17 02:52:14;;;;;;;33.97;14.43;;;;;;;2.75;67.96;101892.41;5046397;28;20013;-64
2022/03/17 02:54:40;;;;;;;27.20;14.88;;;;;;;2.74;68.15;101899.22;5046655;28;20044;-64
2022/03/17 02:57:06;;;;;;;28.27;15.25;;;;;;;2.89;67.84;101899.03;5046461;28;20512;-64
2022/03/17 02:59:32;;;;;;;23.85;11.73;;;;;;;2.86;68.02;101893.78;5046395;28;20086;-63
2022/03/17 03:01:57;;;;;;;24.63;13.70;;;;;;;2.72;68.64;101899.13;5046433;28;20076;-64
2022/03/17 03:04:23;;;;;;;16.33;8.70;;;;;;;2.66;68.83;101890.25;5046306;28;20021;-64
2022/03/17 03:06:48;;;;;;;36.35;17.95;;;;;;;2.68;68.84;101896.34;5046280;28;20033;-63
2022/03/17 03:09:14;;;;;;;25.83;10.35;;;;;;;2.76;68.66;101900.19;5046156;28;20073;-63
2022/03/17 03:11:39;;;;;;;31.00;14.27;;;;;;;2.72;68.79;101906.84;5046142;28;20026;-63
2022/03/17 03:14:08;;;;;;;15.15;7.75;;;;;;;2.85;68.62;101898.03;5046251;28;20060;-63
2022/03/17 03:16:34;;;;;;;23.35;9.40;;;;;;;2.89;68.39;101905.88;5045996;28;20029;-63
2022/03/17 03:18:59;;;;;;;18.35;10.02;;;;;;;2.89;68.47;101891.34;5046052;28;20034;-64
2022/03/17 03:21:24;;;;;;;36.95;19.52;;;;;;;2.86;68.31;101883.50;5045858;28;20025;-63
2022/03/17 03:23:50;;;;;;;18.23;9.50;;;;;;;2.59;69.42;101892.53;5045999;28;20025;-64
2022/03/17 03:26:15;;;;;;;26.95;12.25;;;;;;;2.58;69.48;101882.19;5028094;28;20229;-64
2022/03/17 03:28:41;;;;;;;19.95;9.25;;;;;;;2.38;70.17;101874.41;5044843;28;20021;-64
2022/03/17 03:31:08;;;;;;;21.27;12.50;;;;;;;2.51;69.87;101869.91;5045766;28;20029;-64
2022/03/17 03:33:33;;;;;;;23.08;9.18;;;;;;;2.52;70.06;101871.66;5046178;28;20052;-64
2022/03/17 03:38:43;;;;;;;32.20;11.13;;;;;;;2.40;70.33;101867.69;5045766;28;20083;-64
2022/03/17 03:41:08;;;;;;;27.05;13.18;;;;;;;2.29;70.43;101864.59;5045543;28;20034;-63
2022/03/17 03:43:33;;;;;;;16.75;9.68;;;;;;;2.58;70.35;101867.72;5045565;28;20021;-64
2022/03/17 03:45:59;;;;;;;21.52;9.40;;;;;;;2.59;70.07;101873.69;5045650;28;20017;-64
2022/03/17 03:48:24;;;;;;;34.08;16.20;;;;;;;2.34;70.88;101875.06;5045533;28;20108;-63
2022/03/17 03:50:50;;;;;;;30.98;15.35;;;;;;;2.27;71.04;101876.44;5045340;28;20443;-63
2022/03/17 03:53:15;;;;;;;28.35;13.88;;;;;;;2.39;70.97;101871.06;5045518;28;20022;-64
2022/03/17 03:55:41;;;;;;;39.45;18.48;;;;;;;2.27;71.31;101873.03;5045618;28;20018;-64
2022/03/17 03:58:06;;;;;;;35.47;18.60;;;;;;;2.17;71.46;101867.41;5045617;28;20036;-64
2022/03/17 04:03:03;;;;;;;17.80;8.05;;;;;;;2.31;71.54;101880.03;5045683;28;20036;-63
2022/03/17 04:05:33;;;;;;;22.40;10.38;;;;;;;2.35;71.51;101889.63;5045374;28;20025;-64
2022/03/17 04:07:59;;;;;;;41.35;19.05;;;;;;;2.20;71.94;101874.41;5045028;28;20029;-64
2022/03/17 04:10:25;;;;;;;34.15;17.42;;;;;;;2.15;72.05;101880.97;5045075;28;20032;-63
2022/03/17 04:12:51;;;;;;;24.25;13.88;;;;;;;2.20;72.44;101870.16;5045153;28;20052;-64
2022/03/17 04:15:16;;;;;;;38.67;14.68;;;;;;;2.40;72.05;101877.03;5044974;28;20029;-64
2022/03/17 04:17:42;;;;;;;22.65;11.90;;;;;;;2.49;72.03;101877.53;5044869;28;20021;-64
2022/03/17 04:20:09;;;;;;;27.25;11.23;;;;;;;2.25;72.80;101883.19;5044879;28;20048;-63
2022/03/17 04:22:34;;;;;;;29.13;14.68;;;;;;;1.88;73.68;101886.44;5044816;28;20497;-63
2022/03/17 04:25:00;;;;;;;25.77;12.77;;;;;;;2.34;72.76;101883.66;5044953;28;20026;-64
2022/03/17 04:27:25;;;;;;;24.02;11.38;;;;;;;2.33;72.62;101878.44;5044784;28;20025;-64
2022/03/17 04:29:50;;;;;;;29.50;14.93;;;;;;;2.01;73.70;101878.59;5044794;28;20034;-64
2022/03/17 04:32:16;;;;;;;32.67;15.85;;;;;;;2.31;73.10;101885.19;5044635;28;20089;-64
2022/03/17 04:34:41;;;;;;;27.88;13.82;;;;;;;2.04;73.97;101885.56;5044673;28;20056;-63
2022/03/17 04:37:08;;;;;;;33.58;16.33;;;;;;;1.96;74.19;101880.03;5044220;28;20049;-63
2022/03/17 04:39:33;;;;;;;32.83;16.27;;;;;;;2.05;74.00;101869.38;5044214;28;20077;-64
2022/03/17 04:41:59;;;;;;;30.45;13.35;;;;;;;2.09;73.86;101864.47;5044329;28;20021;-64
2022/03/17 04:44:27;;;;;;;22.55;12.18;;;;;;;2.15;74.00;101876.72;5044498;28;20018;-64
2022/03/17 04:46:52;;;;;;;41.25;20.33;;;;;;;1.76;75.05;101879.03;5044214;28;20033;-63
2022/03/17 04:49:18;;;;;;;35.50;16.45;;;;;;;2.06;74.52;101866.03;5044468;28;20049;-65
2022/03/17 04:51:43;;;;;;;32.17;15.40;;;;;;;1.99;74.42;101864.81;5043996;28;20448;-64
2022/03/17 04:54:09;;;;;;;40.70;20.55;;;;;;;1.80;75.18;101850.19;5044205;28;20101;-64
2022/03/17 04:56:34;;;;;;;34.90;16.85;;;;;;;2.10;74.73;101855.13;5044080;28;20113;-65
2022/03/17 04:59:00;;;;;;;18.30;8.65;;;;;;;1.92;75.27;101843.13;5044233;28;20018;-64
2022/03/17 05:01:25;;;;;;;40.45;21.23;;;;;;;1.77;75.40;101838.13;5044042;28;20108;-63
2022/03/17 05:03:51;;;;;;;56.40;27.70;;;;;;;1.47;76.49;101820.41;5043929;28;20480;-63
2022/03/17 05:06:17;;;;;;;43.97;16.15;;;;;;;1.59;76.69;101812.44;5043473;28;20025;-63
2022/03/17 05:08:42;;;;;;;29.85;13.27;;;;;;;1.73;76.16;101820.84;5043853;28;20083;-63
2022/03/17 05:11:09;;;;;;;36.63;17.88;;;;;;;1.74;75.71;101820.06;5043586;28;20253;-63
2022/03/17 05:13:35;;;;;;;24.23;13.38;;;;;;;2.06;75.20;101814.78;5043640;28;20545;-65
2022/03/17 05:16:02;;;;;;;35.55;17.85;;;;;;;2.04;75.46;101813.81;5043987;28;20033;-65
2022/03/17 05:18:27;;;;;;;32.53;15.52;;;;;;;2.09;75.35;101820.91;5043711;28;20076;-64
2022/03/17 05:20:53;;;;;;;32.10;15.60;;;;;;;1.93;75.69;101800.47;5043620;28;20057;-65
2022/03/17 05:23:20;;;;;;;35.95;16.00;;;;;;;2.13;75.29;101827.09;5043503;28;20036;-64
2022/03/17 05:25:47;;;;;;;33.25;16.77;;;;;;;1.94;75.86;101821.06;5043652;28;20029;-65
2022/03/17 05:28:13;;;;;;;60.28;27.80;;;;;;;1.77;76.39;101827.88;5043818;28;20492;-66
2022/03/17 05:30:39;;;;;;;34.58;15.40;;;;;;;1.93;76.47;101824.41;5043465;28;20029;-66
2022/03/17 05:33:06;;;;;;;30.85;14.18;;;;;;;2.08;76.01;101828.53;5043317;28;20029;-70
2022/03/17 05:35:32;;;;;;;35.80;16.45;;;;;;;2.03;76.19;101819.75;5043336;28;20051;-63
2022/03/17 05:37:58;;;;;;;29.35;13.55;;;;;;;2.00;76.29;101824.72;5043269;28;20521;-62
2022/03/17 05:40:24;;;;;;;33.63;15.02;;;;;;;1.95;76.46;101816.81;5043399;28;20048;-64
2022/03/17 05:42:54;;;;;;;37.30;16.85;;;;;;;1.95;76.47;101827.06;5043479;28;20022;-63
2022/03/17 05:45:21;;;;;;;27.70;16.02;;;;;;;2.19;75.83;101808.59;5043282;28;20026;-64
2022/03/17 05:47:51;;;;;;;33.50;16.67;;;;;;;2.09;76.05;101810.66;5043213;28;20025;-65
2022/03/17 05:50:20;;;;;;;36.35;16.70;;;;;;;2.16;76.21;101811.84;5024920;28;20021;-65
2022/03/17 05:52:46;;;;;;;28.75;11.57;;;;;;;2.10;76.04;101798.75;5043128;28;20018;-64
2022/03/17 05:55:13;;;;;;;53.83;25.65;;;;;;;1.85;76.81;101823.16;5043404;28;20029;-64
2022/03/17 05:57:40;;;;;;;42.72;22.77;;;;;;;1.85;77.27;101805.22;5043465;28;20029;-64
2022/03/17 06:00:08;;;;;;;30.23;13.80;;;;;;;2.09;76.70;101810.66;5043236;28;20056;-65
2022/03/17 06:02:34;;;;;;;25.88;13.80;;;;;;;2.16;76.41;101799.03;5043587;28;20028;-65
2022/03/17 06:04:59;;;;;;;33.92;16.15;;;;;;;2.31;75.92;101809.19;5043193;28;20017;-65
2022/03/17 06:07:25;;;;;;;29.55;13.60;;;;;;;2.29;75.92;101807.31;5042981;28;20528;-65
2022/03/17 06:09:50;;;;;;;28.50;14.40;;;;;;;2.42;75.73;101791.75;5043083;28;20032;-64
2022/03/17 06:12:16;;;;;;;43.65;21.73;;;;;;;2.19;76.19;101783.81;5043191;28;20145;-75
2022/03/17 06:14:44;;;;;;;24.02;12.00;;;;;;;2.28;75.97;101810.69;5043101;28;20022;-72
2022/03/17 06:17:11;;;;;;;37.92;18.42;;;;;;;2.08;76.41;101802.91;5043177;28;20103;-68
2022/03/17 06:19:36;;;;;;;49.97;23.13;;;;;;;2.19;76.06;101791.50;5025339;28;20297;-63
2022/03/17 06:22:01;;;;;;;29.10;13.25;;;;;;;2.47;75.81;101794.53;5042807;28;20021;-64
2022/03/17 06:24:27;;;;;;;46.03;20.30;;;;;;;2.25;75.83;101793.50;5024899;28;20022;-64
2022/03/17 06:26:52;;;;;;;38.90;17.13;;;;;;;2.16;76.30;101795.59;5042870;28;20519;-64
2022/03/17 06:29:17;;;;;;;40.58;17.27;;;;;;;2.26;76.10;101789.25;5043074;28;20032;-64
2022/03/17 06:31:43;;;;;;;30.20;11.95;;;;;;;2.56;75.17;101776.13;5042901;28;20029;-66
2022/03/17 06:34:09;;;;;;;22.02;11.70;;;;;;;2.45;75.65;101776.50;5042698;28;20030;-67
2022/03/17 06:36:34;;;;;;;42.72;21.05;;;;;;;2.20;76.33;101800.09;5042775;28;20055;-64
2022/03/17 06:38:59;;;;;;;35.20;16.92;;;;;;;2.18;76.38;101784.63;5042826;28;20540;-64
2022/03/17 06:41:25;;;;;;;42.60;19.67;;;;;;;2.29;76.06;101779.13;5042710;28;20029;-64
2022/03/17 06:43:50;;;;;;;21.63;8.90;;;;;;;2.59;75.18;101791.66;5043025;28;20024;-65
2022/03/17 06:46:16;;;;;;;44.10;23.70;;;;;;;2.42;75.38;101793.41;5042833;28;20025;-64
2022/03/17 06:48:41;;;;;;;18.35;10.43;;;;;;;2.54;75.35;101776.03;5042877;28;20053;-64
2022/03/17 06:51:06;;;;;;;37.70;20.42;;;;;;;2.38;75.66;101776.16;5042746;28;20025;-64
2022/03/17 06:53:32;;;;;;;21.98;11.10;;;;;;;2.68;75.18;101776.72;5042605;28;20305;-66
2022/03/17 06:55:57;;;;;;;48.30;22.75;;;;;;;2.36;75.48;101768.38;5042432;28;20029;-70
2022/03/17 06:58:23;;;;;;;17.50;7.50;;;;;;;2.77;74.47;101778.81;5041971;28;20029;-68
2022/03/17 07:00:48;;;;;;;27.63;12.93;;;;;;;2.46;75.60;101772.28;5042057;28;20053;-65
2022/03/17 07:03:13;;;;;;;18.45;10.85;;;;;;;2.63;75.38;101770.50;5045285;28;20025;-65
2022/03/17 07:05:39;;;;;;;35.97;19.30;;;;;;;2.56;75.10;101773.56;5045654;28;20078;-64
2022/03/17 07:08:04;;;;;;;21.73;9.13;;;;;;;2.93;73.90;101767.56;5045554;28;20025;-67
2022/03/17 07:10:30;;;;;;;18.33;8.18;;;;;;;2.71;74.26;101765.72;5045038;28;20037;-64
2022/03/17 07:12:55;;;;;;;19.55;10.05;;;;;;;2.77;74.28;101768.56;5045249;28;20159;-65
2022/03/17 07:15:20;;;;;;;22.67;12.40;;;;;;;2.83;73.92;101757.69;5045550;28;20017;-65
2022/03/17 07:17:46;;;;;;;18.52;9.45;;;;;;;2.64;75.04;101758.53;5045238;28;20585;-65
2022/03/17 07:20:16;;;;;;;19.90;7.90;;;;;;;2.87;74.05;101767.28;5045281;28;20029;-64
2022/03/17 07:22:43;;;;;;;23.92;12.15;;;;;;;2.84;74.18;101754.31;5045213;28;20026;-64
2022/03/17 07:25:10;;;;;;;25.50;9.55;;;;;;;2.94;73.70;101753.06;5046036;28;20085;-65
2022/03/17 07:27:41;;;;;;;17.05;9.20;;;;;;;3.00;73.41;101762.72;5045261;28;20175;-65
2022/03/17 07:30:08;;;;;;;35.20;18.88;;;;;;;2.73;74.32;101759.84;5045340;28;20030;-63
2022/03/17 07:32:34;;;;;;;12.82;7.57;;;;;;;3.09;73.37;101757.97;5045307;28;20040;-64
2022/03/17 07:34:59;;;;;;;31.55;13.57;;;;;;;2.97;73.32;101753.19;5045278;28;20068;-65
2022/03/17 07:37:24;;;;;;;25.63;12.18;;;;;;;3.15;72.85;101744.53;5044826;28;20047;-65
2022/03/17 07:39:50;;;;;;;19.98;11.10;;;;;;;3.12;73.05;101735.03;5045156;28;20040;-66
2022/03/17 07:42:15;;;;;;;24.58;11.18;;;;;;;3.04;72.96;101742.38;5045098;28;20060;-64
2022/03/17 07:44:41;;;;;;;19.08;10.38;;;;;;;3.10;73.18;101736.63;5027251;28;20026;-66
2022/03/17 07:47:09;;;;;;;20.17;11.65;;;;;;;3.07;72.56;101734.81;5045172;28;20031;-64
2022/03/17 07:49:38;;;;;;;21.77;9.98;;;;;;;3.16;72.51;101724.09;5044986;28;20032;-66
2022/03/17 07:52:05;;;;;;;25.75;13.60;;;;;;;3.27;71.51;101715.97;5044778;28;20401;-64
2022/03/17 07:54:31;;;;;;;25.58;12.13;;;;;;;3.28;71.60;101720.28;5044977;28;20032;-67
2022/03/17 07:56:57;;;;;;;36.00;17.77;;;;;;;3.02;72.04;101736.28;5026952;28;20077;-64
2022/03/17 07:59:24;;;;;;;24.42;11.43;;;;;;;3.03;72.03;101726.91;5044737;28;20029;-64
2022/03/17 08:01:50;;;;;;;31.17;16.92;;;;;;;3.10;71.53;101718.66;5044515;28;20032;-64
2022/03/17 08:04:16;;;;;;;23.52;11.75;;;;;;;3.43;70.46;101733.78;5044708;28;20029;-66
2022/03/17 08:06:41;;;;;;;33.70;18.55;;;;;;;2.99;71.97;101725.91;5044554;28;20413;-64
2022/03/17 08:09:07;;;;;;;22.33;10.05;;;;;;;3.16;71.60;101718.06;5044617;28;20026;-64
2022/03/17 08:11:32;;;;;;;30.88;16.83;;;;;;;3.14;70.86;101676.94;5026556;28;20064;-67
2022/03/17 08:13:57;;;;;;;24.60;12.55;;;;;;;3.05;71.44;101712.47;5044000;28;20061;-64
2022/03/17 08:16:23;;;;;;;24.13;13.98;;;;;;;3.40;69.42;101708.00;5044663;28;20047;-68
2022/03/17 08:18:49;;;;;;;29.65;16.88;;;;;;;3.25;69.81;101702.19;5044555;28;20110;-64
2022/03/17 08:21:15;;;;;;;17.45;10.30;;;;;;;3.42;68.34;101690.94;5044305;28;20030;-65
2022/03/17 08:23:40;;;;;;;21.83;10.48;;;;;;;3.53;68.23;101704.22;5044326;28;20358;-65
2022/03/17 08:26:06;;;;;;;26.10;12.90;;;;;;;3.49;68.11;101701.47;5044314;28;20021;-64
2022/03/17 08:28:31;;;;;;;20.88;10.77;;;;;;;3.56;67.38;101690.66;5044046;28;20025;-64
2022/03/17 08:30:57;;;;;;;31.73;14.13;;;;;;;3.39;68.12;101693.38;5044259;28;20092;-65
2022/03/17 08:33:23;;;;;;;25.38;13.48;;;;;;;3.43;67.92;101689.25;5044084;28;20354;-65
2022/03/17 08:35:48;;;;;;;21.95;10.85;;;;;;;3.78;66.33;101679.56;5044347;28;20052;-65
2022/03/17 08:38:14;;;;;;;32.55;16.10;;;;;;;3.32;67.69;101679.41;5043497;28;20541;-66
2022/03/17 08:40:40;;;;;;;35.13;13.25;;;;;;;3.78;65.45;101682.13;5043893;28;20027;-65
2022/03/17 08:43:10;;;;;;;38.42;19.90;;;;;;;3.29;67.23;101675.84;5044159;28;20025;-64
2022/03/17 08:51:07;;;;;;;34.78;18.17;;;;;;;3.51;65.72;101679.31;5043822;28;20033;-65
2022/03/17 08:53:33;;;;;;;36.60;20.40;;;;;;;3.37;66.43;101671.03;5043541;28;20381;-64
2022/03/17 08:56:01;;;;;;;25.92;14.25;;;;;;;3.95;64.11;101671.63;5043801;28;20465;-66
2022/03/17 08:58:27;;;;;;;23.63;12.27;;;;;;;3.71;64.97;101670.72;5043733;28;20026;-65
2022/03/17 09:00:54;;;;;;;35.08;17.73;;;;;;;3.55;65.43;101670.91;5043542;28;20055;-64
2022/03/17 09:03:19;;;;;;;32.00;16.30;;;;;;;3.46;66.25;101667.16;5043621;28;20021;-65
2022/03/17 09:05:45;;;;;;;28.27;13.38;;;;;;;3.95;64.19;101669.06;5043521;28;20022;-64
2022/03/17 09:08:10;;;;;;;40.42;21.38;;;;;;;3.92;63.90;101669.84;5043371;28;20026;-64
2022/03/17 09:10:38;;;;;;;15.13;7.82;;;;;;;4.04;63.88;101661.72;5043413;28;20026;-65
2022/03/17 09:13:09;;;;;;;31.95;14.20;;;;;;;3.59;65.49;101670.25;5026077;28;20033;-64
2022/03/17 09:15:37;;;;;;;34.05;14.00;;;;;;;3.95;64.68;101672.53;5043321;28;20029;-65
2022/03/17 09:18:05;;;;;;;30.27;13.38;;;;;;;3.99;64.52;101652.09;5043431;28;20021;-67
2022/03/17 09:20:31;;;;;;;29.77;16.27;;;;;;;3.90;64.86;101663.75;5043416;28;20040;-65
2022/03/17 09:22:56;;;;;;;23.55;10.43;;;;;;;3.88;65.50;101660.25;5043146;28;20029;-66
2022/03/17 09:25:25;;;;;;;18.00;9.20;;;;;;;3.99;64.80;101657.22;5042558;28;20014;-65
2022/03/17 09:27:51;;;;;;;38.05;19.77;;;;;;;3.70;65.73;101656.16;5025872;28;20028;-64
2022/03/17 09:30:16;;;;;;;28.55;14.02;;;;;;;3.83;65.92;101659.19;5042840;28;20021;-65
2022/03/17 09:32:42;;;;;;;24.35;12.45;;;;;;;4.12;64.46;101654.28;5043168;28;20030;-65
2022/03/17 09:35:08;;;;;;;34.17;19.30;;;;;;;4.00;64.75;101651.25;5043172;28;20037;-65
2022/03/17 09:37:33;;;;;;;24.63;14.50;;;;;;;4.21;64.43;101664.06;5042763;28;20113;-65
2022/03/17 09:39:58;;;;;;;27.80;16.25;;;;;;;4.20;64.69;101658.03;5043312;28;20055;-65
2022/03/17 09:42:24;;;;;;;40.28;22.98;;;;;;;3.92;65.75;101662.13;5043197;28;20021;-65
2022/03/17 09:44:54;;;;;;;42.55;23.38;;;;;;;4.08;65.02;101652.44;5043186;28;20013;-65
2022/03/17 09:47:21;;;;;;;40.53;22.23;;;;;;;4.03;65.43;101656.50;5043138;28;20104;-65
2022/03/17 09:49:53;;;;;;;40.78;20.58;;;;;;;3.86;66.30;101656.75;5043115;28;20030;-65
2022/03/17 09:52:20;;;;;;;;;;;;;;;4.36;64.84;101653.47;5043288;28;20033;-66
2022/03/17 09:54:47;;;;;;;42.33;20.52;;;;;;;4.21;64.76;101640.94;5043016;28;20347;-65
2022/03/17 09:57:16;;;;;;;40.75;21.52;;;;;;;4.21;64.88;101634.09;5042909;28;20492;-66
2022/03/17 09:59:42;;;;;;;41.80;22.38;;;;;;;4.16;65.08;101645.91;5042910;28;20029;-65
2022/03/17 10:02:08;;;;;;;35.13;19.85;;;;;;;4.08;65.82;101652.44;5042854;28;20021;-64
2022/03/17 10:04:39;;;;;;;28.83;13.32;;;;;;;4.59;64.10;101613.19;5042805;28;20022;-65
2022/03/17 10:07:04;;;;;;;41.88;21.15;;;;;;;4.37;64.59;101631.22;5042778;28;20047;-64
2022/03/17 10:09:30;;;;;;;45.30;21.40;;;;;;;4.19;65.60;101635.75;5042772;28;20081;-64
2022/03/17 10:12:10;;;;;;;37.47;18.30;;;;;;;4.41;65.27;101623.66;5024976;28;20160;-64
2022/03/17 10:14:43;;;;;;;37.50;17.38;;;;;;;4.55;64.85;101608.75;5042836;28;20381;-65
2022/03/17 10:17:29;;;;;;;28.33;15.65;;;;;;;4.60;64.35;101606.31;5024980;28;20032;-64
2022/03/17 10:20:13;;;;;;;38.28;15.77;;;;;;;4.71;63.94;101606.75;5028742;28;20089;-64
2022/03/17 10:22:43;;;;;;;18.30;10.90;;;;;;;4.74;64.68;101599.13;5042420;28;20026;-65
2022/03/17 10:25:08;;;;;;;24.92;12.02;;;;;;;5.20;62.84;101575.75;5042955;28;20028;-66
2022/03/17 10:27:41;;;;;;;16.83;10.18;;;;;;;5.20;62.50;101579.22;5042835;28;20022;-66
2022/03/17 10:30:07;;;;;;;25.88;13.88;;;;;;;4.86;63.68;101598.66;5042694;28;20088;-65
2022/03/17 10:32:33;;;;;;;37.97;17.77;;;;;;;4.86;63.94;101598.66;5042462;28;20029;-64
2022/03/17 10:34:58;;;;;;;22.58;12.93;;;;;;;5.07;62.94;101579.63;5042546;28;20021;-65
2022/03/17 10:37:25;;;;;;;23.40;12.20;;;;;;;5.02;63.43;101584.63;5044134;28;20045;-65
2022/03/17 10:39:52;;;;;;;27.27;13.35;;;;;;;5.23;62.77;101572.41;5046712;28;20349;-64
2022/03/17 10:42:26;;;;;;;31.65;14.77;;;;;;;5.09;63.10;101580.56;5046367;28;20049;-65
2022/03/17 10:44:52;;;;;;;37.38;20.10;;;;;;;5.26;62.40;101575.97;5046700;28;20049;-64
2022/03/17 10:47:29;;;;;;;32.55;16.35;;;;;;;5.08;63.19;101568.50;5046313;28;20056;-64
2022/03/17 10:50:00;;;;;;;38.72;20.90;;;;;;;5.11;63.08;101568.63;5046306;28;20033;-64
2022/03/17 10:52:25;;;;;;;25.75;12.02;;;;;;;5.61;61.96;101564.16;5046050;28;20025;-66
2022/03/17 10:54:57;;;;;;;31.15;15.18;;;;;;;5.53;61.52;101558.75;5046001;28;20172;-65
2022/03/17 10:57:24;;;;;;;29.80;15.95;;;;;;;5.58;60.89;101557.19;5045807;28;20029;-64
2022/03/17 10:59:54;;;;;;;28.40;14.30;;;;;;;5.63;61.20;101555.66;5046175;28;20598;-65
2022/03/17 11:02:24;;;;;;;19.70;11.23;;;;;;;5.60;61.26;101552.97;5045930;28;20394;-64
2022/03/17 11:04:51;;;;;;;34.45;14.82;;;;;;;5.87;60.52;101520.25;5045942;28;20026;-68
2022/03/17 11:07:17;;;;;;;27.42;14.00;;;;;;;5.90;59.98;101526.38;5045706;28;20036;-68
2022/03/17 11:09:46;;;;;;;31.77;15.88;;;;;;;5.65;60.70;101537.66;5045799;28;20032;-67
2022/03/17 11:12:15;;;;;;;23.63;11.75;;;;;;;5.76;60.58;101544.00;5045649;28;20097;-66
2022/03/17 11:14:43;;;;;;;31.13;15.50;;;;;;;5.69;60.25;101539.47;5045669;28;20017;-66
2022/03/17 11:17:11;;;;;;;35.58;17.60;;;;;;;5.67;60.64;101547.16;5045669;28;20048;-65
2022/03/17 11:19:37;;;;;;;27.52;14.23;;;;;;;6.01;59.30;101559.31;5045780;28;20168;-67
2022/03/17 11:22:08;;;;;;;33.83;17.40;;;;;;;5.76;60.07;101553.44;5045326;28;20112;-66
2022/03/17 11:24:33;;;;;;;37.30;13.30;;;;;;;6.00;58.86;101532.66;5045556;28;20335;-67
2022/03/17 11:27:13;;;;;;;34.40;17.00;;;;;;;5.87;59.48;101551.16;5045628;28;20121;-67
2022/03/17 11:29:47;;;;;;;32.25;14.65;;;;;;;6.11;58.86;101529.53;5045398;28;20029;-69
2022/03/17 11:32:24;;;;;;;25.75;13.30;;;;;;;5.91;59.07;101535.00;5045361;28;20433;-66
2022/03/17 11:34:49;;;;;;;29.15;13.38;;;;;;;6.01;58.92;101543.84;5045267;28;20025;-67